Time;durP1;ratioP1;P1;durP2;ratioP2;P2;SDS_P1;SDS_P2;PMS_P1;PMS_P2;Temp;Humidity;BMP_temperature;BMP_pressure;BME280_temperature;BME280_humidity;BME280_pressure;Samples;Min_cycle;Max_cycle;Signal;HPM_P1;HPM_P2
2021/11/21 00:00:30;;;;;;;9.45;4.55;;;;;;;8.27;100.00;100949.31;4907940;29;20040;-74
2021/11/21 00:02:57;;;;;;;6.45;3.53;;;;;;;8.21;100.00;100946.38;4913485;29;20534;-74
2021/11/21 00:05:23;;;;;;;8.63;4.22;;;;;;;8.19;100.00;100955.19;4905608;29;20058;-75
2021/11/21 00:07:48;;;;;;;6.95;3.78;;;;;;;8.30;100.00;100949.06;4913159;29;20490;-75
2021/11/21 00:10:14;;;;;;;9.60;4.43;;;;;;;8.23;100.00;100942.69;4908862;29;20554;-75
2021/11/21 00:12:40;;;;;;;11.95;4.25;;;;;;;8.31;100.00;100934.22;4895924;29;20036;-76
2021/11/21 00:15:07;;;;;;;12.15;4.15;;;;;;;8.37;100.00;100931.91;4892258;29;20052;-76
2021/11/21 00:17:33;;;;;;;11.52;4.47;;;;;;;8.36;100.00;100925.03;4895304;29;20084;-77
2021/11/21 00:19:59;;;;;;;11.70;4.25;;;;;;;8.41;100.00;100918.59;4908093;29;20118;-75
2021/11/21 00:22:25;;;;;;;11.75;4.18;;;;;;;8.40;100.00;100912.56;4912426;29;20039;-74
2021/11/21 00:24:51;;;;;;;15.80;5.00;;;;;;;8.30;100.00;100912.47;4906677;29;20032;-74
2021/11/21 00:27:18;;;;;;;8.10;4.40;;;;;;;8.30;100.00;100898.56;4893861;29;20040;-75
2021/11/21 00:29:44;;;;;;;8.15;4.13;;;;;;;8.23;100.00;100900.03;4896623;29;20042;-75
2021/11/21 00:32:09;;;;;;;13.52;4.63;;;;;;;8.16;100.00;100899.72;4910150;29;20036;-75
2021/11/21 00:34:35;;;;;;;12.18;4.00;;;;;;;8.22;100.00;100887.94;4900502;29;20039;-75
2021/11/21 00:37:01;;;;;;;12.30;2.97;;;;;;;8.32;100.00;100887.03;4895424;29;20422;-75
2021/11/21 00:39:27;;;;;;;7.93;3.50;;;;;;;8.25;100.00;100877.22;4907822;29;20033;-75
2021/11/21 00:41:55;;;;;;;12.35;3.50;;;;;;;8.24;100.00;100875.56;4906121;29;20087;-75
2021/11/21 00:44:21;;;;;;;5.78;2.92;;;;;;;8.20;100.00;100867.16;4904329;29;20075;-75
2021/11/21 00:46:47;;;;;;;12.23;3.67;;;;;;;8.30;100.00;100878.50;4904534;29;20036;-75
2021/11/21 00:49:16;;;;;;;12.00;3.53;;;;;;;8.22;100.00;100867.84;4910050;29;20048;-75
2021/11/21 00:51:42;;;;;;;12.70;3.55;;;;;;;8.23;100.00;100868.69;4905996;29;20521;-74
2021/11/21 00:54:21;;;;;;;6.82;3.08;;;;;;;8.14;100.00;100867.69;4896469;29;20589;-74
2021/11/21 00:56:47;;;;;;;7.60;3.45;;;;;;;8.24;100.00;100860.72;4907023;29;20068;-75
2021/11/21 00:59:13;;;;;;;10.90;3.28;;;;;;;8.19;100.00;100861.13;4903267;29;20092;-75
2021/11/21 01:01:39;;;;;;;6.60;3.20;;;;;;;8.24;100.00;100854.66;4893096;29;20047;-75
2021/11/21 01:04:05;;;;;;;10.70;3.10;;;;;;;8.31;100.00;100848.81;4905476;29;20047;-76
2021/11/21 01:06:30;;;;;;;11.80;2.95;;;;;;;8.30;100.00;100849.75;4906028;29;20032;-75
2021/11/21 01:08:56;;;;;;;12.52;3.70;;;;;;;8.31;100.00;100848.81;4877674;29;20048;-74
2021/11/21 01:11:22;;;;;;;7.10;3.00;;;;;;;8.28;100.00;100835.97;4875961;29;20044;-74
2021/11/21 01:13:48;;;;;;;6.38;3.03;;;;;;;8.32;100.00;100837.38;4871881;29;20036;-75
2021/11/21 01:16:14;;;;;;;6.40;3.47;;;;;;;8.21;100.00;100827.00;4907790;29;20042;-75
2021/11/21 01:18:40;;;;;;;8.57;3.38;;;;;;;8.18;100.00;100828.09;4892814;29;20111;-75
2021/11/21 01:21:06;;;;;;;11.65;3.65;;;;;;;8.24;100.00;100828.53;4877958;29;20486;-76
2021/11/21 01:23:32;;;;;;;10.63;3.33;;;;;;;8.24;100.00;100825.94;4894668;29;20042;-76
2021/11/21 01:25:57;;;;;;;8.30;3.50;;;;;;;8.25;100.00;100825.81;4888218;29;20044;-76
2021/11/21 01:28:25;;;;;;;6.13;3.05;;;;;;;8.27;100.00;100828.25;4872772;29;20044;-75
2021/11/21 01:30:51;;;;;;;7.53;3.50;;;;;;;8.26;100.00;100822.22;4873960;29;20044;-76
2021/11/21 01:33:17;;;;;;;7.05;3.75;;;;;;;8.24;100.00;100824.13;4876749;29;20028;-77
2021/11/21 01:35:43;;;;;;;8.50;3.70;;;;;;;8.33;100.00;100819.94;4876311;29;20051;-75
2021/11/21 01:38:10;;;;;;;9.15;3.47;;;;;;;8.32;100.00;100820.88;4890702;29;20053;-75
2021/11/21 01:40:37;;;;;;;9.35;4.05;;;;;;;8.32;100.00;100813.03;4879335;29;20036;-76
2021/11/21 01:43:06;;;;;;;7.53;3.53;;;;;;;8.26;100.00;100813.56;4905200;29;20475;-75
2021/11/21 01:45:32;;;;;;;7.45;3.75;;;;;;;8.24;100.00;100805.03;4890607;29;20040;-73
2021/11/21 01:47:58;;;;;;;6.93;3.97;;;;;;;8.25;100.00;100804.91;4892752;29;20032;-74
2021/11/21 01:50:32;;;;;;;13.00;3.97;;;;;;;8.27;100.00;100799.53;4876540;29;20135;-73
2021/11/21 01:52:57;;;;;;;;;;;;;;;8.21;100.00;100800.88;4893586;29;20608;-74
2021/11/21 01:55:24;;;;;;;7.88;4.60;;;;;;;8.22;100.00;100793.88;4890202;29;19951;-72
2021/11/21 01:57:52;;;;;;;12.82;4.72;;;;;;;8.23;100.00;100792.91;4893374;29;20510;-75
2021/11/21 02:00:18;;;;;;;10.95;4.40;;;;;;;8.25;100.00;100794.44;4895527;29;20131;-73
2021/11/21 02:02:44;;;;;;;9.02;4.03;;;;;;;8.21;100.00;100790.41;4893556;29;20142;-74
2021/11/21 02:05:11;;;;;;;13.68;4.78;;;;;;;8.20;100.00;100786.16;4889940;29;20063;-74
2021/11/21 02:07:37;;;;;;;11.20;4.88;;;;;;;8.17;100.00;100774.19;4892421;29;20063;-73
2021/11/21 02:10:05;;;;;;;9.23;4.57;;;;;;;8.23;100.00;100772.00;4876298;29;20470;-74
2021/11/21 02:12:31;;;;;;;8.15;5.53;;;;;;;8.25;100.00;100762.25;4890363;29;20036;-74
2021/11/21 02:14:57;;;;;;;12.68;5.30;;;;;;;8.31;100.00;100759.13;4892620;29;20442;-73
2021/11/21 02:17:27;;;;;;;6.80;4.82;;;;;;;8.32;100.00;100758.16;4883587;29;20044;-74
2021/11/21 02:19:54;;;;;;;12.43;5.78;;;;;;;8.34;100.00;100751.84;4879136;29;20059;-74
2021/11/21 02:22:20;;;;;;;7.43;4.97;;;;;;;8.30;100.00;100752.22;4879216;29;20043;-74
2021/11/21 02:24:46;;;;;;;8.32;5.20;;;;;;;8.32;100.00;100755.53;4890881;29;20044;-74
2021/11/21 02:27:22;;;;;;;9.00;5.50;;;;;;;8.25;100.00;100749.16;4896503;29;20050;-74
2021/11/21 02:29:48;;;;;;;9.10;5.75;;;;;;;8.25;100.00;100750.03;4878237;29;20051;-73
2021/11/21 02:32:13;;;;;;;9.18;5.65;;;;;;;8.21;100.00;100747.78;4895440;29;20493;-74
2021/11/21 02:34:39;;;;;;;13.63;5.50;;;;;;;8.24;100.00;100740.50;4892972;29;20076;-75
2021/11/21 02:37:08;;;;;;;11.13;5.85;;;;;;;8.32;100.00;100737.25;4886555;29;20315;-74
2021/11/21 02:39:38;;;;;;;10.63;6.40;;;;;;;8.35;100.00;100732.59;4876597;29;20048;-73
2021/11/21 02:42:05;;;;;;;8.93;6.38;;;;;;;8.30;100.00;100724.31;4875263;29;20040;-73
2021/11/21 02:44:32;;;;;;;12.68;7.13;;;;;;;8.30;100.00;100733.94;4896072;29;20044;-74
2021/11/21 02:46:58;;;;;;;14.38;8.75;;;;;;;8.27;100.00;100728.97;4890317;29;20037;-74
2021/11/21 02:49:24;;;;;;;15.55;8.90;;;;;;;8.34;100.00;100733.56;4889952;29;20051;-75
2021/11/21 02:51:50;;;;;;;15.27;9.27;;;;;;;8.33;100.00;100729.28;4880215;29;20047;-74
2021/11/21 02:54:16;;;;;;;15.30;10.45;;;;;;;8.26;100.00;100730.75;4876562;29;20131;-74
2021/11/21 02:56:42;;;;;;;18.40;11.18;;;;;;;8.18;100.00;100720.97;4892758;29;20040;-73
2021/11/21 02:59:08;;;;;;;22.50;12.25;;;;;;;8.21;100.00;100714.63;4879933;29;20040;-74
2021/11/21 03:01:34;;;;;;;18.08;12.60;;;;;;;8.05;100.00;100722.16;4876561;29;20130;-74
2021/11/21 03:04:00;;;;;;;19.50;13.32;;;;;;;8.06;100.00;100711.56;4880105;29;20064;-76
2021/11/21 03:06:28;;;;;;;22.95;14.90;;;;;;;7.99;100.00;100708.66;4890403;29;20048;-74
2021/11/21 03:08:55;;;;;;;22.05;15.57;;;;;;;7.93;100.00;100706.56;4875122;29;20589;-74
2021/11/21 03:11:42;;;;;;;21.30;15.13;;;;;;;7.83;100.00;100712.69;4893631;29;20044;-73
2021/11/21 03:14:07;;;;;;;22.67;14.93;;;;;;;7.83;100.00;100713.50;4876680;29;20044;-74
2021/11/21 03:16:34;;;;;;;21.67;15.80;;;;;;;7.75;100.00;100714.16;4879421;29;20076;-74
2021/11/21 03:19:00;;;;;;;23.55;17.27;;;;;;;7.73;100.00;100713.47;4912226;29;20498;-75
2021/11/21 03:21:26;;;;;;;22.48;16.02;;;;;;;7.75;100.00;100708.13;4893090;29;20040;-74
2021/11/21 03:23:52;;;;;;;21.70;15.70;;;;;;;7.80;100.00;100701.53;4895315;29;20099;-74
2021/11/21 03:26:20;;;;;;;25.33;17.80;;;;;;;7.80;100.00;100700.72;4897333;29;20143;-75
2021/11/21 03:28:46;;;;;;;22.48;16.83;;;;;;;7.88;100.00;100700.06;4883703;29;20635;-74
2021/11/21 03:31:12;;;;;;;25.40;17.73;;;;;;;7.86;100.00;100702.81;4877614;29;20601;-75
2021/11/21 03:33:39;;;;;;;25.85;17.13;;;;;;;7.76;100.00;100694.09;4894903;29;20040;-75
2021/11/21 03:36:05;;;;;;;25.25;16.65;;;;;;;7.75;100.00;100703.72;4893596;29;20041;-76
2021/11/21 03:38:32;;;;;;;28.23;16.40;;;;;;;7.78;100.00;100700.84;4903043;29;20040;-76
2021/11/21 03:40:58;;;;;;;25.45;15.60;;;;;;;7.71;100.00;100699.72;4891815;29;20074;-75
2021/11/21 03:43:24;;;;;;;23.70;15.63;;;;;;;7.74;100.00;100709.91;4883241;29;20119;-75
2021/11/21 03:45:53;;;;;;;22.05;15.80;;;;;;;7.68;100.00;100722.63;4898519;29;20158;-75
2021/11/21 03:48:19;;;;;;;24.17;15.52;;;;;;;7.71;100.00;100722.38;4892369;29;20048;-76
2021/11/21 03:50:46;;;;;;;22.38;15.13;;;;;;;7.73;100.00;100721.28;4874049;29;20040;-75
2021/11/21 03:53:12;;;;;;;20.50;14.00;;;;;;;7.72;100.00;100713.56;4896533;29;20043;-74
2021/11/21 03:55:39;;;;;;;19.42;12.90;;;;;;;7.68;100.00;100720.84;4907230;29;20115;-75
2021/11/21 03:58:05;;;;;;;25.23;12.98;;;;;;;7.60;100.00;100713.66;4893941;29;20039;-75
2021/11/21 04:00:32;;;;;;;23.50;13.30;;;;;;;7.59;100.00;100724.22;4911346;29;20100;-74
2021/11/21 04:02:58;;;;;;;15.15;11.02;;;;;;;7.63;100.00;100728.25;4869450;29;20044;-75
2021/11/21 04:05:25;;;;;;;20.25;11.50;;;;;;;7.64;100.00;100718.63;4880413;29;20400;-75
2021/11/21 04:07:51;;;;;;;17.67;11.65;;;;;;;7.69;100.00;100711.25;4879761;29;20063;-76
2021/11/21 04:10:17;;;;;;;15.32;11.25;;;;;;;7.74;100.00;100716.88;4890778;29;20064;-75
2021/11/21 04:12:44;;;;;;;14.13;9.82;;;;;;;7.73;100.00;100713.47;4892435;29;20040;-74
2021/11/21 04:15:11;;;;;;;13.18;7.68;;;;;;;7.71;100.00;100722.38;4889922;29;20514;-74
2021/11/21 04:17:38;;;;;;;8.38;6.00;;;;;;;7.68;100.00;100706.97;4881758;29;20044;-75
2021/11/21 04:20:08;;;;;;;8.15;5.70;;;;;;;7.66;100.00;100714.91;4893656;29;20039;-75
2021/11/21 04:22:35;;;;;;;8.73;5.25;;;;;;;7.67;100.00;100716.59;4892283;29;20114;-74
2021/11/21 04:25:02;;;;;;;5.78;4.95;;;;;;;7.67;100.00;100707.94;4876206;29;20040;-74
2021/11/21 04:27:28;;;;;;;6.43;4.18;;;;;;;7.63;100.00;100707.38;4893686;29;20081;-75
2021/11/21 04:29:55;;;;;;;7.07;3.90;;;;;;;7.58;100.00;100704.31;4879177;29;20040;-75
2021/11/21 04:32:22;;;;;;;6.45;4.10;;;;;;;7.64;100.00;100702.97;4888954;29;20720;-73
2021/11/21 04:34:49;;;;;;;9.43;3.75;;;;;;;7.55;100.00;100704.53;4878807;29;20123;-74
2021/11/21 04:37:16;;;;;;;7.90;3.58;;;;;;;7.50;100.00;100698.91;4892871;29;20498;-75
2021/11/21 04:39:42;;;;;;;5.40;3.15;;;;;;;7.53;100.00;100703.84;4889862;29;20039;-74
2021/11/21 04:42:08;;;;;;;6.40;3.20;;;;;;;7.48;100.00;100703.41;4881559;29;20036;-75
2021/11/21 04:44:35;;;;;;;7.05;3.40;;;;;;;7.44;100.00;100702.84;4896493;29;20407;-75
2021/11/21 04:47:01;;;;;;;13.18;3.38;;;;;;;7.44;100.00;100707.22;4912230;29;20050;-75
2021/11/21 04:49:27;;;;;;;9.80;2.90;;;;;;;7.45;100.00;100708.88;4882854;29;20036;-75
2021/11/21 04:51:53;;;;;;;3.80;2.75;;;;;;;7.41;100.00;100710.91;4894434;23;20024;-77
2021/11/21 04:54:20;;;;;;;5.43;2.85;;;;;;;7.41;100.00;100711.75;4881728;29;20048;-76
2021/11/21 04:56:46;;;;;;;4.13;2.40;;;;;;;7.43;100.00;100708.19;4902226;29;20557;-75
2021/11/21 04:59:13;;;;;;;5.13;2.40;;;;;;;7.44;100.00;100694.16;4907716;29;20032;-76
2021/11/21 05:01:39;;;;;;;5.03;2.17;;;;;;;7.40;100.00;100694.44;4902490;29;20123;-75
2021/11/21 05:04:05;;;;;;;5.55;2.50;;;;;;;7.39;100.00;100692.78;4907565;29;20028;-76
2021/11/21 05:06:31;;;;;;;5.95;1.90;;;;;;;7.35;100.00;100701.00;4894176;29;20119;-76
2021/11/21 05:08:57;;;;;;;5.72;1.60;;;;;;;7.37;100.00;100702.50;4909274;29;20592;-76
2021/11/21 05:11:22;;;;;;;5.03;1.60;;;;;;;7.39;100.00;100705.00;4907033;29;20041;-78
2021/11/21 05:13:48;;;;;;;5.72;1.65;;;;;;;7.33;100.00;100705.53;4895417;29;20040;-77
2021/11/21 05:16:14;;;;;;;8.70;1.80;;;;;;;7.30;100.00;100709.19;4908510;29;20072;-76
2021/11/21 05:18:39;;;;;;;6.32;1.77;;;;;;;7.30;100.00;100708.38;4908214;29;20067;-77
2021/11/21 05:21:07;;;;;;;5.07;1.70;;;;;;;7.31;100.00;100702.19;4906828;29;20056;-77
2021/11/21 05:23:32;;;;;;;5.03;1.42;;;;;;;7.24;100.00;100685.41;4908281;29;20047;-76
2021/11/21 05:25:58;;;;;;;8.25;2.20;;;;;;;7.34;100.00;100697.53;4892838;29;20498;-76
2021/11/21 05:28:24;;;;;;;3.03;1.85;;;;;;;7.33;100.00;100697.69;4910712;29;20042;-76
2021/11/21 05:30:50;;;;;;;3.47;1.58;;;;;;;7.32;100.00;100699.44;4903070;29;20483;-78
2021/11/21 05:33:17;;;;;;;6.63;1.73;;;;;;;7.30;100.00;100690.91;4887743;29;20480;-76
2021/11/21 05:35:43;;;;;;;7.32;1.80;;;;;;;7.31;100.00;100695.19;4908712;29;20048;-76
2021/11/21 05:38:09;;;;;;;4.90;1.70;;;;;;;7.29;100.00;100701.47;4907360;29;20622;-76
2021/11/21 05:40:35;;;;;;;7.30;2.00;;;;;;;7.35;100.00;100693.16;4910089;29;20039;-77
2021/11/21 05:43:01;;;;;;;9.05;2.08;;;;;;;7.32;100.00;100696.03;4896243;29;20083;-77
2021/11/21 05:45:27;;;;;;;7.50;1.80;;;;;;;7.31;100.00;100694.34;4909150;29;20084;-76
2021/11/21 05:47:54;;;;;;;8.57;2.30;;;;;;;7.33;100.00;100702.91;4896557;29;20048;-76
2021/11/21 05:50:20;;;;;;;8.05;1.83;;;;;;;7.32;100.00;100714.28;4907968;29;20036;-75
2021/11/21 05:52:47;;;;;;;9.52;2.20;;;;;;;7.35;100.00;100699.22;4910623;29;20088;-76
2021/11/21 05:55:15;;;;;;;12.32;2.20;;;;;;;7.36;100.00;100708.69;4895388;29;20044;-79
2021/11/21 05:57:41;;;;;;;10.45;2.13;;;;;;;7.33;100.00;100693.28;4892798;29;20199;-76
2021/11/21 06:00:11;;;;;;;11.52;2.10;;;;;;;7.29;100.00;100694.50;4907335;29;20067;-77
2021/11/21 06:02:38;;;;;;;15.57;2.05;;;;;;;7.33;100.00;100698.50;4912059;29;20115;-76
2021/11/21 06:05:05;;;;;;;8.00;1.90;;;;;;;7.30;100.00;100693.53;4904422;29;20131;-76
2021/11/21 06:07:30;;;;;;;12.35;1.95;;;;;;;7.17;100.00;100687.66;4910869;29;20477;-77
2021/11/21 06:09:56;;;;;;;13.20;2.38;;;;;;;7.22;100.00;100695.94;4911224;29;20122;-77
2021/11/21 06:12:21;;;;;;;23.73;2.67;;;;;;;7.23;100.00;100702.81;4893878;29;20036;-76
2021/11/21 06:14:47;;;;;;;10.20;2.03;;;;;;;7.24;100.00;100688.00;4895883;29;20034;-76
2021/11/21 06:17:13;;;;;;;14.15;1.98;;;;;;;7.22;100.00;100703.78;4912484;29;20036;-76
2021/11/21 06:19:39;;;;;;;15.15;2.00;;;;;;;7.11;100.00;100699.44;4895760;29;20566;-76
2021/11/21 06:22:05;;;;;;;13.20;2.35;;;;;;;7.04;100.00;100698.28;4907899;29;20127;-77
2021/11/21 06:24:31;;;;;;;15.82;2.28;;;;;;;6.96;100.00;100703.28;4906174;29;20073;-75
2021/11/21 06:26:57;;;;;;;21.25;2.10;;;;;;;6.92;100.00;100696.66;4908792;29;20040;-76
2021/11/21 06:29:23;;;;;;;19.88;2.38;;;;;;;6.88;100.00;100698.69;4887105;29;20040;-76
2021/11/21 06:31:50;;;;;;;25.08;2.17;;;;;;;6.80;100.00;100698.50;4895617;29;20043;-77
2021/11/21 06:34:16;;;;;;;10.98;1.48;;;;;;;6.80;100.00;100691.50;4908107;29;20034;-76
2021/11/21 06:36:42;;;;;;;33.50;2.40;;;;;;;6.80;100.00;100698.50;4904522;29;20054;-76
2021/11/21 06:39:08;;;;;;;11.25;1.83;;;;;;;6.78;100.00;100711.66;4908133;29;20032;-76
2021/11/21 06:41:35;;;;;;;13.82;2.20;;;;;;;6.73;100.00;100705.97;4894553;29;20053;-77
2021/11/21 06:44:01;;;;;;;14.73;2.40;;;;;;;6.77;100.00;100703.94;4907212;29;20040;-77
2021/11/21 06:46:27;;;;;;;19.05;2.50;;;;;;;6.75;100.00;100700.63;4908742;29;20048;-77
2021/11/21 06:48:53;;;;;;;18.42;2.08;;;;;;;6.75;100.00;100700.63;4909908;29;20036;-76
2021/11/21 06:51:19;;;;;;;20.75;2.40;;;;;;;6.79;100.00;100695.03;4893638;29;20040;-76
2021/11/21 06:53:47;;;;;;;14.02;2.00;;;;;;;6.75;100.00;100698.03;4899248;29;20529;-77
2021/11/21 06:56:14;;;;;;;14.07;2.17;;;;;;;6.71;100.00;100710.47;4897908;29;20043;-75
2021/11/21 06:58:39;;;;;;;25.98;2.58;;;;;;;6.70;100.00;100706.19;4883018;29;20040;-77
2021/11/21 07:01:05;;;;;;;15.25;2.10;;;;;;;6.67;100.00;100713.44;4912845;29;20047;-76
2021/11/21 07:03:31;;;;;;;15.73;2.22;;;;;;;6.64;100.00;100711.91;4899212;29;20036;-76
2021/11/21 07:05:57;;;;;;;21.83;2.70;;;;;;;6.63;100.00;100705.88;4915371;29;20088;-75
2021/11/21 07:08:22;;;;;;;17.58;2.17;;;;;;;6.61;100.00;100704.31;4898998;29;20036;-76
2021/11/21 07:10:48;;;;;;;22.83;3.17;;;;;;;6.63;100.00;100705.88;4894018;29;20102;-75
2021/11/21 07:13:13;;;;;;;21.67;1.90;;;;;;;6.60;100.00;100697.47;4912746;29;20028;-76
2021/11/21 07:15:39;;;;;;;12.13;2.03;;;;;;;6.61;100.00;100692.13;4913369;29;20123;-76
2021/11/21 07:18:05;;;;;;;13.13;1.88;;;;;;;6.65;100.00;100705.75;4882469;29;20042;-76
2021/11/21 07:20:31;;;;;;;18.38;2.63;;;;;;;6.68;100.00;100702.88;4913465;29;20095;-77
2021/11/21 07:22:57;;;;;;;11.05;2.22;;;;;;;6.69;100.00;100708.94;4914342;29;20040;-75
2021/11/21 07:25:24;;;;;;;15.70;2.40;;;;;;;6.66;100.00;100720.44;4895226;29;20127;-75
2021/11/21 07:27:51;;;;;;;12.45;1.90;;;;;;;6.63;100.00;100716.31;4919735;29;20133;-76
2021/11/21 07:30:19;;;;;;;11.35;2.30;;;;;;;6.63;100.00;100718.09;4910444;29;20562;-75
2021/11/21 07:32:46;;;;;;;13.95;2.50;;;;;;;6.64;100.00;100722.34;4912214;29;20088;-75
2021/11/21 07:35:14;;;;;;;14.65;2.50;;;;;;;6.63;100.00;100726.72;4910275;29;20431;-75
2021/11/21 07:37:39;;;;;;;10.50;2.15;;;;;;;6.66;100.00;100720.44;4911110;29;20079;-75
2021/11/21 07:40:06;;;;;;;15.40;2.92;;;;;;;6.72;100.00;100717.31;4913239;29;20070;-76
2021/11/21 07:42:32;;;;;;;12.00;2.92;;;;;;;6.70;100.00;100718.41;4896155;29;20436;-75
2021/11/21 07:44:57;;;;;;;11.82;3.95;;;;;;;6.77;100.00;100730.84;4912155;29;20042;-75
2021/11/21 07:47:23;;;;;;;11.93;3.60;;;;;;;6.83;100.00;100726.91;4912762;29;20070;-75
2021/11/21 07:49:49;;;;;;;13.80;4.25;;;;;;;6.88;100.00;100727.38;4898202;29;20044;-76
2021/11/21 07:52:15;;;;;;;16.02;4.25;;;;;;;6.94;100.00;100734.69;4913134;29;20502;-75
2021/11/21 07:54:43;;;;;;;11.85;4.35;;;;;;;6.99;100.00;100736.97;4913848;29;20574;-75
2021/11/21 07:57:09;;;;;;;15.00;4.45;;;;;;;7.02;100.00;100736.69;4913656;29;20044;-76
2021/11/21 07:59:35;;;;;;;11.45;4.25;;;;;;;6.98;100.00;100736.09;4913057;29;20111;-75
2021/11/21 08:02:00;;;;;;;14.25;4.55;;;;;;;7.01;100.00;100745.47;4907476;29;20486;-76
2021/11/21 08:04:26;;;;;;;15.60;4.43;;;;;;;7.05;100.00;100743.47;4909679;29;20536;-75
2021/11/21 08:06:51;;;;;;;11.75;4.13;;;;;;;7.02;100.00;100745.34;4913913;29;20036;-76
2021/11/21 08:09:17;;;;;;;14.50;4.05;;;;;;;7.06;100.00;100753.75;4897231;29;20032;-76
2021/11/21 08:11:42;;;;;;;8.68;4.00;;;;;;;7.09;100.00;100744.88;4912913;29;20584;-76
2021/11/21 08:14:08;;;;;;;16.83;4.70;;;;;;;7.20;100.00;100752.66;4912812;29;20036;-76
2021/11/21 08:16:33;;;;;;;9.85;3.90;;;;;;;7.25;100.00;100760.91;4911577;29;20055;-76
2021/11/21 08:18:59;;;;;;;10.05;4.28;;;;;;;7.32;100.00;100762.06;4895288;29;20320;-78
2021/11/21 08:21:25;;;;;;;11.85;4.00;;;;;;;7.35;100.00;100764.44;4910679;29;20041;-75
2021/11/21 08:23:50;;;;;;;13.30;4.18;;;;;;;7.36;100.00;100762.66;4893045;29;20076;-76
2021/11/21 08:26:16;;;;;;;10.90;4.30;;;;;;;7.44;100.00;100755.03;4908883;29;20040;-76
2021/11/21 08:28:41;;;;;;;13.65;4.85;;;;;;;7.47;100.00;100761.78;4913133;29;20120;-75
2021/11/21 08:31:07;;;;;;;24.58;4.05;;;;;;;7.54;100.00;100763.75;4909642;29;20039;-77
2021/11/21 08:33:34;;;;;;;11.85;4.40;;;;;;;7.58;100.00;100762.56;4896095;29;20088;-75
2021/11/21 08:36:00;;;;;;;15.63;4.63;;;;;;;7.63;100.00;100763.94;4891569;29;20043;-76
2021/11/21 08:38:26;;;;;;;21.20;4.20;;;;;;;7.62;100.00;100754.47;4907642;29;20044;-76
2021/11/21 08:40:52;;;;;;;12.95;4.88;;;;;;;7.58;100.00;100759.13;4910887;29;20745;-77
2021/11/21 08:43:18;;;;;;;18.38;4.45;;;;;;;7.59;100.00;100761.59;4908515;29;20479;-75
2021/11/21 08:45:45;;;;;;;18.77;4.47;;;;;;;7.53;100.00;100763.88;4911721;29;20044;-78
2021/11/21 08:48:12;;;;;;;15.85;3.95;;;;;;;7.54;100.00;100761.16;4895600;29;20111;-76
2021/11/21 08:50:38;;;;;;;14.50;4.30;;;;;;;7.56;100.00;100777.50;4912497;29;20418;-78
2021/11/21 08:53:04;;;;;;;18.38;4.53;;;;;;;7.76;100.00;100772.41;4923449;29;20028;-75
2021/11/21 08:55:30;;;;;;;19.38;4.95;;;;;;;7.97;100.00;100781.09;4912070;29;20041;-77
2021/11/21 08:57:56;;;;;;;15.75;4.40;;;;;;;8.05;100.00;100764.78;4914529;29;20039;-78
2021/11/21 09:00:23;;;;;;;15.63;4.32;;;;;;;8.07;100.00;100773.31;4911915;29;20124;-79
2021/11/21 09:02:49;;;;;;;20.30;3.03;;;;;;;7.98;100.00;100769.66;4912315;29;20087;-76
2021/11/21 09:05:15;;;;;;;17.70;2.40;;;;;;;7.79;100.00;100761.72;4911686;29;20028;-76
2021/11/21 09:07:43;;;;;;;20.25;2.70;;;;;;;7.60;100.00;100773.69;4911286;29;20043;-76
2021/11/21 09:10:12;;;;;;;15.57;2.15;;;;;;;7.44;100.00;100773.31;4910397;29;20071;-75
2021/11/21 09:12:38;;;;;;;18.80;2.65;;;;;;;7.30;100.00;100778.81;4912576;29;20483;-75
2021/11/21 09:15:05;;;;;;;10.15;2.47;;;;;;;7.22;100.00;100775.03;4908859;29;20059;-75
2021/11/21 09:17:31;;;;;;;12.38;2.33;;;;;;;7.16;100.00;100777.34;4894468;29;20123;-76
2021/11/21 09:19:56;;;;;;;13.02;3.00;;;;;;;7.21;100.00;100778.63;4896220;29;20036;-76
2021/11/21 09:22:22;;;;;;;11.65;3.17;;;;;;;7.26;100.00;100775.63;4910204;29;20046;-76
2021/11/21 09:24:47;;;;;;;19.67;3.85;;;;;;;7.33;100.00;100776.78;4892831;29;20494;-76
2021/11/21 09:27:16;;;;;;;20.95;4.65;;;;;;;7.50;100.00;100780.63;4910781;29;20044;-76
2021/11/21 09:29:43;;;;;;;21.13;4.72;;;;;;;7.60;100.00;100776.31;4906310;29;20040;-76
2021/11/21 09:32:10;;;;;;;22.92;4.80;;;;;;;7.77;100.00;100771.47;4909969;29;20039;-76
2021/11/21 09:34:35;;;;;;;18.88;4.55;;;;;;;7.79;100.00;100766.94;4909984;29;20080;-76
2021/11/21 09:37:02;;;;;;;17.85;4.70;;;;;;;7.86;100.00;100772.50;4911176;29;20040;-76
2021/11/21 09:39:28;;;;;;;26.25;4.45;;;;;;;7.90;100.00;100779.94;4891705;29;20046;-77
2021/11/21 09:41:53;;;;;;;26.08;4.72;;;;;;;7.89;100.00;100782.69;4910256;29;20040;-76
2021/11/21 09:44:19;;;;;;;17.33;4.00;;;;;;;7.90;100.00;100779.94;4893991;29;20383;-76
2021/11/21 09:46:45;;;;;;;20.25;3.95;;;;;;;7.93;100.00;100776.22;4911405;29;20431;-77
2021/11/21 09:49:12;;;;;;;26.27;3.85;;;;;;;8.03;100.00;100782.34;4909899;29;20043;-77
2021/11/21 09:51:38;;;;;;;23.02;3.22;;;;;;;8.04;100.00;100786.59;4896314;29;20044;-76
2021/11/21 09:54:03;;;;;;;22.25;3.55;;;;;;;8.06;100.00;100776.88;4895624;29;20032;-76
2021/11/21 09:56:30;;;;;;;21.05;3.15;;;;;;;8.11;100.00;100779.91;4910906;29;20058;-76
2021/11/21 09:58:56;;;;;;;21.25;3.50;;;;;;;8.23;100.00;100778.06;4896212;29;20036;-76
2021/11/21 10:01:38;;;;;;;18.67;3.53;;;;;;;8.43;100.00;100786.03;4910622;29;20040;-76
2021/11/21 10:04:06;;;;;;;17.20;2.42;;;;;;;8.44;100.00;100778.06;4895630;29;20044;-77
2021/11/21 10:06:36;;;;;;;18.58;2.30;;;;;;;8.34;100.00;100780.59;4911160;29;20064;-76
2021/11/21 10:09:05;;;;;;;13.52;2.28;;;;;;;8.26;100.00;100774.38;4908489;29;20040;-76
2021/11/21 10:11:31;;;;;;;17.40;2.83;;;;;;;8.14;100.00;100776.25;4908806;29;20832;-76
2021/11/21 10:14:06;;;;;;;14.98;2.33;;;;;;;8.05;100.00;100784.84;4894396;29;20570;-75
2021/11/21 10:16:34;;;;;;;15.30;2.00;;;;;;;7.90;100.00;100792.19;4909528;29;20131;-75
2021/11/21 10:19:09;;;;;;;14.52;2.00;;;;;;;7.81;100.00;100783.31;4894958;29;20378;-76
2021/11/21 10:21:39;;;;;;;15.98;2.63;;;;;;;7.74;100.00;100784.78;4909177;29;20031;-75
2021/11/21 10:24:13;;;;;;;23.23;2.78;;;;;;;7.71;100.00;100783.25;4907575;29;20471;-75
2021/11/21 10:26:39;;;;;;;17.40;2.38;;;;;;;7.73;100.00;100786.56;4905483;29;20119;-76
2021/11/21 10:29:33;;;;;;;10.98;2.40;;;;;;;7.75;100.00;100784.66;4910281;29;20499;-75
2021/11/21 10:32:02;;;;;;;12.75;2.78;;;;;;;7.82;100.00;100786.75;4876737;29;20511;-76
2021/11/21 10:34:28;;;;;;;11.32;2.70;;;;;;;7.94;100.00;100783.94;4907860;29;20555;-76
2021/11/21 10:36:55;;;;;;;13.98;2.33;;;;;;;8.08;100.00;100790.66;4894872;29;20041;-75
2021/11/21 10:39:27;;;;;;;15.43;2.40;;;;;;;8.17;100.00;100781.19;4908847;29;20111;-76
2021/11/21 10:41:56;;;;;;;19.92;2.60;;;;;;;8.30;100.00;100792.25;4907396;29;20066;-75
2021/11/21 10:44:21;;;;;;;15.35;2.42;;;;;;;8.36;100.00;100783.06;4908366;29;20032;-75
2021/11/21 10:46:53;;;;;;;28.23;2.88;;;;;;;8.50;100.00;100795.00;4908422;29;20111;-78
2021/11/21 10:49:21;;;;;;;15.93;2.20;;;;;;;8.50;100.00;100790.59;4889542;29;20056;-75
2021/11/21 10:51:50;;;;;;;14.18;2.10;;;;;;;8.42;100.00;100798.28;4910980;29;20127;-75
2021/11/21 10:54:28;;;;;;;22.08;2.30;;;;;;;8.37;100.00;100788.16;4911269;29;20040;-76
2021/11/21 10:56:57;;;;;;;11.95;1.40;;;;;;;8.51;100.00;100783.56;4904275;29;20099;-75
2021/11/21 10:59:48;;;;;;;10.45;1.05;;;;;;;8.45;100.00;100791.94;4907806;29;20171;-76
2021/11/21 11:02:36;;;;;;;5.97;0.82;;;;;;;8.36;100.00;100788.28;4911990;29;20040;-77
2021/11/21 11:05:07;;;;;;;7.60;0.82;;;;;;;8.30;100.00;100792.25;4886714;29;20096;-75
2021/11/21 11:07:46;;;;;;;4.63;0.60;;;;;;;8.21;100.00;100776.53;4908304;29;20041;-75
2021/11/21 11:10:15;;;;;;;4.72;1.00;;;;;;;8.17;100.00;100787.25;4893768;29;20062;-74
2021/11/21 11:12:43;;;;;;;4.65;0.82;;;;;;;8.21;100.00;100793.03;4891580;29;20043;-75
2021/11/21 11:15:09;;;;;;;4.40;0.90;;;;;;;8.22;100.00;100780.81;4905281;29;20043;-75
2021/11/21 11:17:36;;;;;;;6.82;1.40;;;;;;;8.29;100.00;100776.72;4909201;29;20044;-76